createdAt,value
2022-08-12T00:02:03.811Z,6.97
2022-08-12T00:04:22.774Z,6.47
2022-08-12T00:06:39.869Z,8.35
2022-08-12T00:08:57.233Z,6.63
2022-08-12T00:11:15.284Z,7.93
2022-08-12T00:13:32.797Z,7.90
2022-08-12T00:15:49.867Z,5.32
2022-08-12T00:18:07.884Z,5.75
2022-08-12T00:20:25.191Z,7.82
2022-08-12T00:22:46.969Z,7.57
2022-08-12T00:25:16.542Z,8.50
2022-08-12T00:27:44.089Z,6.35
2022-08-12T00:30:01.540Z,5.90
2022-08-12T00:32:35.159Z,6.05
2022-08-12T00:34:53.477Z,6.75
2022-08-12T00:37:13.118Z,7.13
2022-08-12T00:39:30.608Z,6.22
2022-08-12T00:41:47.767Z,6.15
2022-08-12T00:44:04.738Z,5.80
2022-08-12T00:46:22.383Z,6.55
2022-08-12T00:48:39.780Z,8.93
2022-08-12T00:50:56.812Z,6.80
2022-08-12T00:53:16.129Z,6.05
2022-08-12T00:55:36.439Z,7.47
2022-08-12T00:57:53.460Z,6.40
2022-08-12T01:00:10.482Z,6.10
2022-08-12T01:02:30.018Z,6.40
2022-08-12T01:04:47.459Z,8.23
2022-08-12T01:07:04.459Z,6.97
2022-08-12T01:09:21.830Z,7.32
2022-08-12T01:11:38.943Z,7.20
2022-08-12T01:13:56.104Z,7.00
2022-08-12T01:16:13.345Z,5.95
2022-08-12T01:18:30.834Z,7.07
2022-08-12T01:20:47.866Z,6.30
2022-08-12T01:23:04.782Z,7.30
2022-08-12T01:25:21.850Z,7.35
2022-08-12T01:27:39.162Z,7.50
2022-08-12T01:29:56.379Z,7.32
2022-08-12T01:32:13.373Z,6.50
2022-08-12T01:34:36.298Z,6.75
2022-08-12T01:36:54.081Z,6.90
2022-08-12T01:39:11.423Z,8.73
2022-08-12T01:41:28.400Z,8.32
2022-08-12T01:43:46.747Z,7.10
2022-08-12T01:46:04.077Z,8.90
2022-08-12T01:48:21.113Z,6.28
2022-08-12T01:50:38.411Z,7.13
2022-08-12T01:52:55.406Z,6.65
2022-08-12T01:55:12.380Z,7.35
2022-08-12T01:57:59.065Z,11.07
2022-08-12T02:00:07.242Z,6.85
2022-08-12T02:02:24.529Z,6.90
2022-08-12T02:04:41.565Z,7.03
2022-08-12T02:06:58.870Z,7.22
2022-08-12T02:09:15.936Z,6.32
2022-08-12T02:11:32.878Z,8.50
2022-08-12T02:13:50.287Z,6.57
2022-08-12T02:16:07.667Z,7.68
2022-08-12T02:18:25.248Z,12.93
2022-08-12T02:20:51.148Z,7.05
2022-08-12T02:23:09.557Z,7.63
2022-08-12T02:25:27.116Z,7.72
2022-08-12T02:27:44.447Z,6.78
2022-08-12T02:30:01.489Z,7.65
2022-08-12T02:32:18.534Z,8.48
2022-08-12T02:34:36.804Z,6.45
2022-08-12T02:36:53.833Z,8.65
2022-08-12T02:39:10.870Z,8.80
2022-08-12T02:41:28.142Z,7.65
2022-08-12T02:43:45.447Z,7.25
2022-08-12T02:46:02.458Z,6.60
2022-08-12T02:48:20.407Z,6.60
2022-08-12T02:50:37.645Z,6.10
2022-08-12T02:52:54.715Z,6.80
2022-08-12T02:55:11.805Z,7.13
2022-08-12T02:57:28.814Z,6.95
2022-08-12T02:59:48.481Z,6.97
2022-08-12T03:02:05.437Z,7.72
2022-08-12T03:04:22.686Z,6.40
2022-08-12T03:06:39.660Z,6.65
2022-08-12T03:08:56.940Z,8.85
2022-08-12T03:11:14.289Z,7.45
2022-08-12T03:13:32.029Z,6.95
2022-08-12T03:15:49.080Z,6.20
2022-08-12T03:18:26.495Z,7.40
2022-08-12T03:20:43.425Z,8.82
2022-08-12T03:23:00.695Z,8.40
2022-08-12T03:25:17.810Z,8.80
2022-08-12T03:27:34.741Z,7.35
2022-08-12T03:29:51.791Z,7.22
2022-08-12T03:32:08.855Z,9.60
2022-08-12T03:34:46.069Z,8.85
2022-08-12T03:37:03.002Z,6.78
2022-08-12T03:39:35.261Z,7.20
2022-08-12T03:41:53.978Z,7.00
2022-08-12T03:44:12.240Z,7.53
2022-08-12T03:46:29.191Z,6.80
2022-08-12T03:48:47.485Z,6.78
2022-08-12T03:51:04.519Z,7.40
2022-08-12T03:53:22.452Z,6.95
2022-08-12T03:55:39.385Z,8.63
2022-08-12T03:57:56.705Z,7.07
2022-08-12T04:00:23.953Z,7.72
2022-08-12T04:02:41.674Z,6.70
2022-08-12T04:04:59.146Z,8.70
2022-08-12T04:07:16.258Z,6.88
2022-08-12T04:09:33.677Z,8.15
2022-08-12T04:11:50.932Z,6.80
2022-08-12T04:14:07.842Z,7.90
2022-08-12T04:16:24.919Z,8.02
2022-08-12T04:18:46.059Z,8.30
2022-08-12T04:21:03.051Z,7.15
2022-08-12T04:23:20.117Z,8.70
2022-08-12T04:25:37.040Z,7.05
2022-08-12T04:27:54.005Z,7.78
2022-08-12T04:30:16.896Z,9.93
2022-08-12T04:32:47.925Z,6.80
2022-08-12T04:35:06.312Z,10.88
2022-08-12T04:37:24.244Z,8.27
2022-08-12T04:39:41.295Z,7.70
2022-08-12T04:41:58.897Z,7.25
2022-08-12T04:44:15.913Z,8.60
2022-08-12T04:46:34.715Z,9.18
2022-08-12T04:48:52.050Z,7.00
2022-08-12T04:51:09.358Z,6.65
2022-08-12T04:53:26.261Z,7.80
2022-08-12T04:55:43.228Z,7.03
2022-08-12T04:58:00.575Z,7.25
2022-08-12T05:00:17.896Z,10.35
2022-08-12T05:02:35.267Z,7.65
2022-08-12T05:04:52.786Z,8.85
2022-08-12T05:07:09.960Z,11.23
2022-08-12T05:09:27.016Z,8.77
2022-08-12T05:12:04.018Z,7.82
2022-08-12T05:14:20.913Z,6.80
2022-08-12T05:16:38.229Z,11.35
2022-08-12T05:18:55.878Z,8.68
2022-08-12T05:21:13.932Z,9.35
2022-08-12T05:23:30.960Z,7.68
2022-08-12T05:25:48.260Z,8.32
2022-08-12T05:28:05.591Z,8.73
2022-08-12T05:30:22.490Z,7.30
2022-08-12T05:32:39.886Z,9.55
2022-08-12T05:34:57.046Z,8.95
2022-08-12T05:37:14.324Z,9.02
2022-08-12T05:39:31.456Z,7.60
2022-08-12T05:41:48.490Z,7.72
2022-08-12T05:44:05.551Z,7.10
2022-08-12T05:46:22.483Z,8.32
2022-08-12T05:48:39.722Z,8.60
2022-08-12T05:50:56.757Z,7.95
2022-08-12T05:53:13.785Z,7.13
2022-08-12T05:55:31.529Z,7.93
2022-08-12T05:57:48.927Z,7.40
2022-08-12T06:00:06.302Z,6.50
2022-08-12T06:02:23.257Z,6.95
2022-08-12T06:04:40.262Z,5.70
2022-08-12T06:06:57.231Z,6.93
2022-08-12T06:09:14.258Z,7.20
2022-08-12T06:11:31.282Z,6.78
2022-08-12T06:13:53.669Z,6.63
2022-08-12T06:16:11.639Z,9.07
2022-08-12T06:18:29.919Z,5.60
2022-08-12T06:20:46.933Z,5.95
2022-08-12T06:23:04.277Z,6.50
2022-08-12T06:25:22.544Z,6.03
2022-08-12T06:27:39.906Z,8.70
2022-08-12T06:30:27.749Z,8.05
2022-08-12T06:33:11.332Z,6.60
2022-08-12T06:35:48.703Z,5.38
2022-08-12T06:38:05.211Z,8.15
2022-08-12T06:40:22.123Z,6.97
2022-08-12T06:42:39.382Z,4.97
2022-08-12T06:44:56.490Z,5.43
2022-08-12T06:47:13.747Z,6.55
2022-08-12T06:49:30.705Z,5.13
2022-08-12T06:51:54.476Z,6.38
2022-08-12T06:54:14.338Z,9.48
2022-08-12T06:57:03.670Z,4.75
2022-08-12T06:59:22.203Z,5.95
2022-08-12T07:01:39.225Z,4.88
2022-08-12T07:04:01.825Z,5.53
2022-08-12T07:06:27.353Z,6.35
2022-08-12T07:08:45.673Z,5.20
2022-08-12T07:11:02.727Z,5.95
2022-08-12T07:13:19.667Z,5.47
2022-08-12T07:15:38.030Z,6.45
2022-08-12T07:17:54.949Z,4.20
2022-08-12T07:20:29.859Z,5.00
2022-08-12T07:22:49.180Z,7.18
2022-08-12T07:25:06.455Z,4.95
2022-08-12T07:27:23.523Z,8.57
2022-08-12T07:29:58.035Z,4.40
2022-08-12T07:32:17.780Z,5.32
2022-08-12T07:34:34.870Z,7.72
2022-08-12T07:36:51.866Z,5.03
2022-08-12T07:39:08.813Z,6.00
2022-08-12T07:41:28.142Z,5.65
2022-08-12T07:43:45.105Z,5.43
2022-08-12T07:46:02.145Z,6.18
2022-08-12T07:48:19.482Z,4.40
2022-08-12T07:50:36.500Z,6.20
2022-08-12T07:52:53.449Z,5.70
2022-08-12T07:55:10.445Z,8.32
2022-08-12T07:57:27.460Z,6.40
2022-08-12T07:59:44.744Z,8.90
2022-08-12T08:02:07.080Z,4.10
2022-08-12T08:04:24.160Z,4.13
2022-08-12T08:06:41.428Z,5.45
2022-08-12T08:08:58.817Z,5.18
2022-08-12T08:11:16.139Z,4.93
2022-08-12T08:13:33.430Z,5.80
2022-08-12T08:16:02.984Z,4.15
2022-08-12T08:18:25.978Z,7.45
2022-08-12T08:20:44.646Z,4.47
2022-08-12T08:23:01.559Z,5.95
2022-08-12T08:25:35.893Z,5.40
2022-08-12T08:27:54.549Z,5.00
2022-08-12T08:30:11.633Z,6.05
2022-08-12T08:32:29.227Z,8.90
2022-08-12T08:34:52.910Z,7.32
2022-08-12T08:37:15.587Z,3.90
2022-08-12T08:39:34.377Z,4.63
2022-08-12T08:42:15.531Z,4.05
2022-08-12T08:44:28.359Z,3.60
2022-08-12T08:46:45.662Z,7.30
2022-08-12T08:49:02.691Z,4.30
2022-08-12T08:51:19.673Z,4.70
2022-08-12T08:53:36.968Z,8.68
2022-08-12T08:56:04.772Z,8.85
2022-08-12T08:58:22.791Z,7.43
2022-08-12T09:00:40.031Z,6.07
2022-08-12T09:02:58.663Z,4.03
2022-08-12T09:05:24.837Z,4.47
2022-08-12T09:07:51.121Z,5.78
2022-08-12T09:10:31.073Z,8.38
2022-08-12T09:12:54.959Z,6.13
2022-08-12T09:15:19.035Z,7.15
2022-08-12T09:17:42.870Z,6.10
2022-08-12T09:22:20.573Z,6.22
2022-08-12T09:24:37.971Z,4.70
2022-08-12T09:26:55.797Z,3.72
2022-08-12T09:29:16.962Z,4.03
2022-08-12T09:32:02.683Z,3.10
2022-08-12T09:34:28.086Z,4.40
2022-08-12T09:36:57.701Z,8.13
2022-08-12T09:40:03.474Z,7.38
2022-08-12T09:42:33.858Z,3.63
2022-08-12T09:44:38.602Z,4.30
2022-08-12T09:46:57.141Z,4.43
2022-08-12T09:49:16.668Z,5.15
2022-08-12T09:51:37.743Z,4.45
2022-08-12T09:54:06.037Z,3.60
2022-08-12T09:56:59.581Z,5.75
2022-08-12T09:59:10.046Z,3.25
2022-08-12T10:01:34.424Z,4.68
2022-08-12T10:04:03.785Z,4.63
2022-08-12T10:06:31.805Z,3.47
2022-08-12T10:08:52.433Z,3.20
2022-08-12T10:11:20.081Z,2.92
2022-08-12T10:13:41.141Z,3.92
2022-08-12T10:16:02.003Z,4.47
2022-08-12T10:18:21.962Z,4.97
2022-08-12T10:20:43.548Z,6.03
2022-08-12T10:23:00.591Z,3.05
2022-08-12T10:25:18.292Z,7.15
2022-08-12T10:27:39.259Z,8.23
2022-08-12T10:30:39.899Z,4.63
2022-08-12T10:32:56.239Z,3.35
2022-08-12T10:35:14.595Z,5.05
2022-08-12T10:38:35.453Z,2.47
2022-08-12T10:40:11.050Z,4.40
2022-08-12T10:42:31.503Z,5.72
2022-08-12T10:44:49.292Z,5.32
2022-08-12T10:47:26.229Z,4.82
2022-08-12T10:50:02.357Z,2.25
2022-08-12T10:52:34.496Z,4.30
2022-08-12T10:54:58.061Z,3.63
2022-08-12T10:57:18.238Z,4.50
2022-08-12T11:00:35.057Z,3.95
2022-08-12T11:04:25.901Z,6.65
2022-08-12T11:07:06.646Z,2.28
2022-08-12T11:08:35.127Z,3.70
2022-08-12T11:10:20.779Z,4.57
2022-08-12T11:12:58.579Z,4.88
2022-08-12T11:15:20.869Z,3.25
2022-08-12T11:17:52.367Z,3.35
2022-08-12T11:20:14.889Z,5.72
2022-08-12T11:22:32.501Z,4.75
2022-08-12T11:24:51.739Z,4.88
2022-08-12T11:27:11.479Z,4.95
2022-08-12T11:30:05.890Z,4.22
2022-08-12T11:32:06.085Z,3.33
2022-08-12T11:34:52.776Z,2.55
2022-08-12T11:37:00.283Z,3.58
2022-08-12T11:41:58.677Z,4.68
2022-08-12T11:44:36.083Z,3.15
2022-08-12T11:46:53.928Z,3.45
2022-08-12T11:49:12.302Z,7.88
2022-08-12T11:51:44.243Z,3.17
2022-08-12T11:54:14.892Z,4.38
2022-08-12T11:56:38.493Z,5.05
2022-08-12T12:02:01.963Z,2.38
2022-08-12T12:04:10.439Z,2.97
2022-08-12T12:06:28.210Z,3.25
2022-08-12T12:08:50.437Z,4.03
2022-08-12T12:11:09.223Z,11.82
2022-08-12T12:14:07.393Z,5.32
2022-08-12T12:16:05.863Z,2.85
2022-08-12T12:18:31.017Z,3.35
2022-08-12T12:20:48.567Z,4.45
2022-08-12T12:23:06.770Z,2.92
2022-08-12T12:26:07.063Z,4.50
2022-08-12T12:28:36.650Z,4.45
2022-08-12T12:30:55.149Z,3.17
2022-08-12T12:33:17.804Z,2.67
2022-08-12T12:36:20.011Z,3.33
2022-08-12T12:38:12.852Z,5.97
2022-08-12T12:40:31.342Z,5.32
2022-08-12T12:42:55.655Z,3.33
2022-08-12T12:45:19.715Z,2.45
2022-08-12T12:47:37.428Z,4.90
2022-08-12T12:49:54.485Z,4.53
2022-08-12T12:52:19.382Z,2.85
2022-08-12T12:54:38.359Z,3.60
2022-08-12T12:56:57.288Z,3.60
2022-08-12T12:59:55.335Z,4.63
2022-08-12T13:01:51.375Z,5.07
2022-08-12T13:04:12.172Z,6.07
2022-08-12T13:06:31.480Z,3.35
2022-08-12T13:08:49.160Z,5.43
2022-08-12T13:11:06.392Z,8.60
2022-08-12T13:14:10.174Z,3.17
2022-08-12T13:16:01.639Z,3.35
2022-08-12T13:18:18.656Z,4.35
2022-08-12T13:20:37.846Z,4.57
2022-08-12T13:22:56.631Z,3.75
2022-08-12T13:25:13.899Z,3.75
2022-08-12T13:27:35.282Z,4.47
2022-08-12T13:29:53.160Z,3.97
2022-08-12T13:32:19.142Z,3.70
2022-08-12T13:34:52.006Z,3.03
2022-08-12T13:37:10.053Z,5.05
2022-08-12T13:39:27.064Z,4.13
2022-08-12T13:41:44.625Z,5.07
2022-08-12T13:44:01.951Z,3.33
2022-08-12T13:46:18.985Z,4.53
2022-08-12T13:48:35.924Z,3.67
2022-08-12T13:50:53.106Z,4.63
2022-08-12T13:53:23.689Z,4.53
2022-08-12T13:55:43.264Z,3.95
2022-08-12T13:58:01.655Z,3.38
2022-08-12T14:00:19.964Z,2.50
2022-08-12T14:02:51.077Z,3.92
2022-08-12T14:05:37.789Z,3.33
2022-08-12T14:07:48.859Z,4.50
2022-08-12T14:10:06.699Z,4.13
2022-08-12T14:12:27.913Z,2.35
2022-08-12T14:14:44.933Z,4.25
2022-08-12T14:17:05.662Z,5.38
2022-08-12T14:19:27.832Z,2.20
2022-08-12T14:21:59.331Z,3.45
2022-08-12T14:24:18.741Z,5.32
2022-08-12T14:26:38.971Z,7.13
2022-08-12T14:28:57.591Z,4.30
2022-08-12T14:31:19.128Z,4.20
2022-08-12T14:33:44.510Z,5.45
2022-08-12T14:36:02.812Z,4.75
2022-08-12T14:38:25.898Z,2.83
2022-08-12T14:40:43.359Z,4.32
2022-08-12T14:43:00.433Z,6.32
2022-08-12T14:45:17.415Z,2.72
2022-08-12T14:47:40.187Z,4.35
2022-08-12T14:50:41.060Z,5.30
2022-08-12T14:53:11.602Z,6.25
2022-08-12T14:57:57.188Z,6.10
2022-08-12T15:00:14.810Z,5.50
2022-08-12T15:02:31.853Z,4.15
2022-08-12T15:04:48.862Z,5.25
2022-08-12T15:07:07.780Z,4.50
2022-08-12T15:09:45.002Z,3.20
2022-08-12T15:12:03.822Z,3.13
2022-08-12T15:14:21.272Z,4.07
2022-08-12T15:16:39.497Z,3.88
2022-08-12T15:18:59.267Z,7.15
2022-08-12T15:21:17.795Z,6.82
2022-08-12T15:23:55.265Z,4.82
2022-08-12T15:26:20.634Z,3.97
2022-08-12T15:28:38.609Z,4.18
2022-08-12T15:30:56.677Z,5.65
2022-08-12T15:33:18.658Z,3.40
2022-08-12T15:35:50.011Z,3.38
2022-08-12T15:40:32.934Z,3.65
2022-08-12T15:42:54.766Z,4.00
2022-08-12T15:45:12.098Z,3.08
2022-08-12T15:47:49.569Z,4.20
2022-08-12T15:50:07.227Z,4.13
2022-08-12T15:52:27.783Z,4.63
2022-08-12T15:54:45.544Z,4.60
2022-08-12T15:57:03.370Z,2.33
2022-08-12T15:59:20.934Z,2.63
2022-08-12T16:01:58.133Z,4.30
2022-08-12T16:04:17.095Z,4.55
2022-08-12T16:09:11.869Z,4.80
2022-08-12T16:11:30.430Z,5.63
2022-08-12T16:13:59.957Z,2.72
2022-08-12T16:16:23.880Z,2.80
2022-08-12T16:18:42.213Z,3.85
2022-08-12T16:21:03.084Z,5.47
2022-08-12T16:23:36.043Z,4.40
2022-08-12T16:26:03.137Z,2.33
2022-08-12T16:28:28.184Z,3.38
2022-08-12T16:30:50.143Z,4.07
2022-08-12T16:33:07.505Z,3.58
2022-08-12T16:35:24.539Z,3.25
2022-08-12T16:40:25.750Z,5.10
2022-08-12T16:42:53.982Z,3.45
2022-08-12T16:45:18.680Z,4.93
2022-08-12T16:47:57.739Z,7.05
2022-08-12T16:50:16.319Z,4.07
2022-08-12T16:52:33.262Z,3.13
2022-08-12T16:54:50.336Z,4.88
2022-08-12T16:57:07.372Z,5.53
2022-08-12T16:59:24.452Z,4.85
2022-08-12T17:01:41.521Z,4.97
2022-08-12T17:03:59.325Z,4.97
2022-08-12T17:06:22.017Z,2.15
2022-08-12T17:08:39.764Z,3.90
2022-08-12T17:11:08.336Z,3.70
2022-08-12T17:13:25.552Z,2.95
2022-08-12T17:15:57.213Z,4.68
2022-08-12T17:18:43.113Z,4.15
2022-08-12T17:20:57.116Z,2.55
2022-08-12T17:23:14.443Z,5.05
2022-08-12T17:25:31.736Z,3.05
2022-08-12T17:27:56.956Z,2.80
2022-08-12T17:30:14.568Z,3.28
2022-08-12T17:32:34.303Z,2.88
2022-08-12T17:34:52.289Z,2.88
2022-08-12T17:37:09.555Z,3.65
2022-08-12T17:40:15.546Z,3.83
2022-08-12T17:42:32.217Z,3.28
2022-08-12T17:44:45.212Z,1.80
2022-08-12T17:47:02.441Z,6.30
2022-08-12T17:50:01.800Z,5.03
2022-08-12T17:52:02.760Z,3.80
2022-08-12T17:54:20.202Z,6.63
2022-08-12T17:56:39.793Z,5.38
2022-08-12T17:58:58.838Z,5.00
2022-08-12T18:01:16.004Z,2.53
2022-08-12T18:04:05.431Z,2.25
2022-08-12T18:06:14.034Z,2.15
2022-08-12T18:08:31.812Z,2.38
2022-08-12T18:10:52.978Z,2.10
2022-08-12T18:13:10.479Z,2.05
2022-08-12T18:16:05.887Z,2.58
2022-08-12T18:18:04.720Z,6.20
2022-08-12T18:20:21.682Z,3.53
2022-08-12T18:22:38.833Z,3.72
2022-08-12T18:25:02.337Z,2.42
2022-08-12T18:27:30.371Z,2.78
2022-08-12T18:30:04.290Z,4.82
2022-08-12T18:32:53.736Z,2.40
2022-08-12T18:35:10.301Z,3.50
2022-08-12T18:37:41.729Z,2.83
2022-08-12T18:39:59.549Z,9.23
2022-08-12T18:42:17.489Z,2.45
2022-08-12T18:44:35.804Z,3.22
2022-08-12T18:46:54.327Z,3.90
2022-08-12T18:49:18.875Z,2.75
2022-08-12T18:51:48.778Z,3.97
2022-08-12T18:54:08.320Z,2.90
2022-08-12T18:56:33.748Z,5.80
2022-08-12T18:58:53.202Z,4.25
2022-08-12T19:02:19.277Z,2.15
2022-08-12T19:03:53.763Z,2.13
2022-08-12T19:06:10.853Z,2.40
2022-08-12T19:08:33.468Z,4.13
2022-08-12T19:10:51.327Z,2.55
2022-08-12T19:13:08.480Z,2.28
2022-08-12T19:15:29.925Z,2.55
2022-08-12T19:18:01.228Z,5.13
2022-08-12T19:20:20.915Z,4.25
2022-08-12T19:22:40.733Z,2.30
2022-08-12T19:24:57.829Z,4.38
2022-08-12T19:27:15.394Z,3.20
2022-08-12T19:29:32.629Z,3.22
2022-08-12T19:32:01.351Z,5.25
2022-08-12T19:36:55.272Z,2.40
2022-08-12T19:39:15.182Z,3.00
2022-08-12T19:41:55.642Z,4.75
2022-08-12T19:44:18.805Z,5.03
2022-08-12T19:46:37.462Z,4.45
2022-08-12T19:48:58.608Z,3.78
2022-08-12T19:51:24.437Z,4.95
2022-08-12T19:53:57.444Z,2.45
2022-08-12T19:58:33.763Z,5.82
2022-08-12T20:00:54.722Z,4.25
2022-08-12T20:03:40.566Z,4.57
2022-08-12T20:06:04.701Z,2.10
2022-08-12T20:08:34.404Z,2.83
2022-08-12T20:10:53.259Z,2.65
2022-08-12T20:13:18.037Z,4.55
2022-08-12T20:15:45.035Z,4.28
2022-08-12T20:18:02.689Z,4.07
2022-08-12T20:20:21.279Z,3.22
2022-08-12T20:22:45.468Z,4.43
2022-08-12T20:25:05.911Z,6.65
2022-08-12T20:27:29.237Z,7.32
2022-08-12T20:30:02.755Z,5.75
2022-08-12T20:32:22.051Z,3.90
2022-08-12T20:34:47.333Z,4.55
2022-08-12T20:37:05.388Z,5.03
2022-08-12T20:39:53.307Z,4.78
2022-08-12T20:41:59.744Z,3.00
2022-08-12T20:44:17.247Z,4.15
2022-08-12T20:46:34.539Z,4.50
2022-08-12T20:48:54.859Z,6.80
2022-08-12T20:51:15.812Z,2.78
2022-08-12T20:53:57.637Z,5.55
2022-08-12T20:56:13.236Z,3.67
2022-08-12T20:58:36.969Z,3.58
2022-08-12T21:00:57.194Z,2.92
2022-08-12T21:03:16.093Z,8.40
2022-08-12T21:06:11.900Z,2.13
2022-08-12T21:08:12.684Z,2.67
2022-08-12T21:10:31.267Z,3.88
2022-08-12T21:12:54.278Z,3.25
2022-08-12T21:15:23.837Z,3.53
2022-08-12T21:18:08.136Z,3.03
2022-08-12T21:20:24.699Z,3.00
2022-08-12T21:22:46.143Z,2.83
2022-08-12T21:25:03.124Z,2.92
2022-08-12T21:27:58.687Z,3.22
2022-08-12T21:30:11.923Z,4.65
2022-08-12T21:32:39.826Z,3.50
2022-08-12T21:35:04.865Z,3.67
2022-08-12T21:37:27.899Z,2.50
2022-08-12T21:39:52.044Z,2.97
2022-08-12T21:42:09.511Z,3.47
2022-08-12T21:45:47.575Z,3.60
2022-08-12T21:47:03.591Z,2.47
2022-08-12T21:49:54.239Z,3.60
2022-08-12T21:51:58.356Z,6.95
2022-08-12T21:54:21.980Z,3.72
2022-08-12T21:56:39.438Z,4.22
2022-08-12T21:59:00.066Z,5.57
2022-08-12T22:01:20.079Z,4.95
2022-08-12T22:04:02.694Z,4.13
2022-08-12T22:06:26.453Z,6.20
2022-08-12T22:08:54.342Z,3.03
2022-08-12T22:11:11.381Z,7.13
2022-08-12T22:14:02.194Z,2.67
2022-08-12T22:16:05.582Z,3.13
2022-08-12T22:18:23.526Z,3.88
2022-08-12T22:20:46.387Z,2.58
2022-08-12T22:23:08.485Z,3.75
2022-08-12T22:25:39.949Z,2.47
2022-08-12T22:27:57.325Z,4.45
2022-08-12T22:30:16.085Z,5.22
2022-08-12T22:32:36.585Z,2.55
2022-08-12T22:34:53.905Z,4.30
2022-08-12T22:37:20.074Z,3.45
2022-08-12T22:39:37.638Z,4.45
2022-08-12T22:42:01.759Z,2.53
2022-08-12T22:44:18.789Z,4.32
2022-08-12T22:46:36.516Z,2.95
2022-08-12T22:48:55.484Z,5.70
2022-08-12T22:51:12.467Z,4.82
2022-08-12T22:53:35.779Z,5.00
2022-08-12T22:55:59.922Z,5.03
2022-08-12T22:58:23.041Z,3.90
2022-08-12T23:00:44.887Z,5.60
2022-08-12T23:03:03.186Z,4.78
2022-08-12T23:05:21.464Z,4.38
2022-08-12T23:07:59.853Z,3.72
2022-08-12T23:10:18.321Z,2.58
2022-08-12T23:12:46.611Z,3.92
2022-08-12T23:15:10.027Z,2.75
2022-08-12T23:17:40.005Z,2.72
2022-08-12T23:19:58.346Z,5.05
2022-08-12T23:22:36.916Z,3.72
2022-08-12T23:24:56.336Z,3.67
2022-08-12T23:27:14.267Z,3.90
2022-08-12T23:29:43.148Z,7.40
2022-08-12T23:32:02.038Z,4.90
2022-08-12T23:34:22.053Z,3.00
2022-08-12T23:36:49.361Z,4.70
2022-08-12T23:40:14.658Z,5.70
2022-08-12T23:41:56.013Z,4.78
2022-08-12T23:44:22.238Z,4.22
2022-08-12T23:46:39.267Z,3.13
2022-08-12T23:48:58.205Z,3.53
2022-08-12T23:51:22.506Z,2.65
2022-08-12T23:53:41.643Z,2.55
2022-08-12T23:55:59.199Z,2.90
2022-08-12T23:58:20.598Z,3.65
